Time;durP1;ratioP1;P1;durP2;ratioP2;P2;SDS_P1;SDS_P2;PMS_P1;PMS_P2;Temp;Humidity;BMP_temperature;BMP_pressure;BME280_temperature;BME280_humidity;BME280_pressure;Samples;Min_cycle;Max_cycle;Signal;HPM_P1;HPM_P2
2022/04/21 00:00:27;;;;;;;7.77;7.10;;;8.40;99.90;;;;;;5050998;28;20420;-70
2022/04/21 00:02:53;;;;;;;8.63;6.90;;;8.40;99.90;;;;;;5051196;28;20541;-70
2022/04/21 00:05:18;;;;;;;8.23;7.33;;;8.40;99.90;;;;;;5051225;28;20173;-69
2022/04/21 00:07:46;;;;;;;9.30;7.00;;;8.30;99.90;;;;;;5051287;28;20170;-70
2022/04/21 00:10:12;;;;;;;7.10;6.43;;;8.30;99.90;;;;;;5052833;28;20174;-69
2022/04/21 00:12:37;;;;;;;7.83;7.00;;;8.20;99.90;;;;;;5053471;28;20501;-70
2022/04/21 00:15:05;;;;;;;9.37;7.10;;;8.10;99.90;;;;;;5054851;28;20197;-69
2022/04/21 00:17:30;;;;;;;7.90;7.20;;;8.10;99.90;;;;;;5054682;28;20542;-70
2022/04/21 00:19:56;;;;;;;7.90;7.17;;;8.00;99.90;;;;;;5054298;28;20415;-70
2022/04/21 00:25:06;;;;;;;10.13;7.63;;;8.00;99.90;;;;;;5054603;28;20269;-69
2022/04/21 00:27:39;;;;;;;8.77;7.03;;;8.00;99.90;;;;;;5054425;28;20481;-70
2022/04/21 00:30:08;;;;;;;7.80;7.10;;;7.90;99.90;;;;;;5054361;28;20474;-70
2022/04/21 00:32:35;;;;;;;10.17;7.73;;;8.00;99.90;;;;;;5054369;28;20444;-70
2022/04/21 00:35:01;;;;;;;8.27;7.57;;;7.90;99.90;;;;;;5054267;28;20930;-70
2022/04/21 00:37:27;;;;;;;9.67;7.57;;;7.90;99.90;;;;;;5054238;28;20432;-69
2022/04/21 00:39:53;;;;;;;8.70;7.80;;;7.80;99.90;;;;;;5054109;28;20981;-70
2022/04/21 00:42:18;;;;;;;8.53;7.53;;;7.80;99.90;;;;;;5054612;28;20439;-69
2022/04/21 00:44:44;;;;;;;7.70;6.90;;;7.70;99.90;;;;;;5054168;28;20216;-70
2022/04/21 00:47:10;;;;;;;9.60;8.03;;;7.70;99.90;;;;;;5054198;28;20175;-70
2022/04/21 00:49:36;;;;;;;8.60;7.70;;;7.60;99.90;;;;;;5053921;28;20777;-70
2022/04/21 00:52:02;;;;;;;9.90;8.17;;;7.60;99.90;;;;;;5053998;28;20440;-70
2022/04/21 00:54:32;;;;;;;9.27;8.47;;;7.60;99.90;;;;;;5053940;28;20542;-69
2022/04/21 00:57:00;;;;;;;9.47;7.80;;;7.50;99.90;;;;;;5053926;28;20424;-70
2022/04/21 00:59:26;;;;;;;10.73;8.03;;;7.50;99.90;;;;;;5053683;28;20836;-70
2022/04/21 01:04:37;;;;;;;8.40;7.63;;;7.50;99.90;;;;;;5053806;28;20570;-69
2022/04/21 01:07:02;;;;;;;9.23;8.40;;;7.50;99.90;;;;;;5053751;28;20600;-69
2022/04/21 01:09:28;;;;;;;8.30;7.70;;;7.50;99.90;;;;;;5053494;28;20431;-70
2022/04/21 01:11:53;;;;;;;8.37;7.63;;;7.40;99.90;;;;;;5053574;28;20557;-70
2022/04/21 01:14:20;;;;;;;10.27;7.60;;;7.40;99.90;;;;;;5053562;28;20208;-70
2022/04/21 01:16:46;;;;;;;12.13;8.17;;;7.40;99.90;;;;;;5053555;28;20311;-70
2022/04/21 01:19:11;;;;;;;10.73;9.63;;;7.40;99.90;;;;;;5053175;28;20456;-70
2022/04/21 01:21:37;;;;;;;10.97;9.67;;;7.30;99.90;;;;;;5053112;28;20204;-70
2022/04/21 01:24:04;;;;;;;10.43;9.53;;;7.30;99.90;;;;;;5053422;28;20170;-70
2022/04/21 01:26:34;;;;;;;9.10;8.13;;;7.30;99.90;;;;;;5053417;28;20592;-69
2022/04/21 01:29:05;;;;;;;9.53;8.73;;;7.30;99.90;;;;;;5053146;28;20467;-70
2022/04/21 01:31:31;;;;;;;8.00;7.40;;;7.30;99.90;;;;;;5053275;28;20411;-70
2022/04/21 01:33:56;;;;;;;11.07;8.40;;;7.30;99.90;;;;;;5053170;28;20456;-69
2022/04/21 01:36:22;;;;;;;13.17;8.33;;;7.20;99.90;;;;;;5053128;28;20174;-71
2022/04/21 01:41:31;;;;;;;10.50;9.07;;;7.20;99.90;;;;;;5053096;28;20216;-70
2022/04/21 01:43:57;;;;;;;9.10;8.33;;;7.10;99.90;;;;;;5053132;28;20416;-70
2022/04/21 01:46:22;;;;;;;13.83;9.23;;;7.00;99.90;;;;;;5053057;28;20553;-70
2022/04/21 01:48:48;;;;;;;9.23;8.50;;;7.00;99.90;;;;;;5052598;28;20174;-70
2022/04/21 01:51:13;;;;;;;9.73;8.87;;;7.00;99.90;;;;;;5053018;28;20227;-68
2022/04/21 01:53:39;;;;;;;15.43;9.77;;;7.00;99.90;;;;;;5052976;28;20193;-70
2022/04/21 01:56:04;;;;;;;9.83;8.93;;;7.00;99.90;;;;;;5052811;28;20693;-69
2022/04/21 01:58:30;;;;;;;8.80;7.90;;;7.00;99.90;;;;;;5053036;28;20161;-68
2022/04/21 02:00:56;;;;;;;9.07;8.17;;;6.90;99.90;;;;;;5052728;28;20200;-68
2022/04/21 02:03:21;;;;;;;9.70;8.73;;;6.90;99.90;;;;;;5052554;28;20190;-68
2022/04/21 02:05:47;;;;;;;9.40;8.50;;;6.90;99.90;;;;;;5052844;28;20777;-68
2022/04/21 02:08:13;;;;;;;10.47;9.37;;;6.90;99.90;;;;;;5052572;28;20649;-68
2022/04/21 02:10:38;;;;;;;9.47;8.57;;;6.90;99.90;;;;;;5052684;28;20268;-68
2022/04/21 02:13:05;;;;;;;11.07;9.27;;;6.90;99.90;;;;;;5052443;28;20185;-68
2022/04/21 02:15:31;;;;;;;10.00;9.00;;;6.80;99.90;;;;;;5052438;28;20667;-68
2022/04/21 02:17:56;;;;;;;9.53;8.67;;;6.80;99.90;;;;;;5052344;28;20454;-69
2022/04/21 02:20:22;;;;;;;10.23;9.40;;;6.70;99.90;;;;;;5052175;28;20172;-68
2022/04/21 02:22:48;;;;;;;12.33;9.30;;;6.80;99.90;;;;;;5052341;28;20576;-69
2022/04/21 02:25:15;;;;;;;10.20;9.20;;;6.70;99.90;;;;;;5052390;28;20170;-69
2022/04/21 02:27:47;;;;;;;10.10;9.10;;;6.80;99.90;;;;;;5052255;28;20257;-68
2022/04/21 02:30:14;;;;;;;10.83;9.97;;;6.80;99.90;;;;;;5052038;28;20444;-68
2022/04/21 02:32:40;;;;;;;10.90;8.80;;;6.80;99.90;;;;;;5051435;28;20440;-68
2022/04/21 02:35:07;;;;;;;10.57;9.60;;;6.70;99.90;;;;;;5052102;28;20487;-68
2022/04/21 02:37:36;;;;;;;10.63;9.23;;;6.70;99.90;;;;;;5052107;28;20447;-68
2022/04/21 02:40:02;;;;;;;11.60;10.10;;;6.70;99.90;;;;;;5051889;28;20411;-68
2022/04/21 02:42:28;;;;;;;9.97;9.17;;;6.70;99.90;;;;;;5052102;28;20435;-69
2022/04/21 02:44:53;;;;;;;15.23;11.57;;;6.70;99.90;;;;;;5052074;28;20925;-69
2022/04/21 02:47:19;;;;;;;10.27;9.30;;;6.60;99.90;;;;;;5052032;28;20177;-68
2022/04/21 02:49:46;;;;;;;12.37;10.30;;;6.60;99.90;;;;;;5051683;28;20623;-69
2022/04/21 02:52:12;;;;;;;11.17;10.07;;;6.50;99.90;;;;;;5051899;28;20243;-68
2022/04/21 02:57:24;;;;;;;11.90;10.63;;;6.50;99.90;;;;;;5051957;28;20834;-68
2022/04/21 02:59:54;;;;;;;10.83;9.83;;;6.50;99.90;;;;;;5051454;28;20412;-68
2022/04/21 03:02:21;;;;;;;12.33;11.03;;;6.50;99.90;;;;;;5051921;28;20525;-69
2022/04/21 03:04:46;;;;;;;11.33;10.20;;;6.40;99.90;;;;;;5051864;28;20925;-68
2022/04/21 03:07:13;;;;;;;13.97;10.67;;;6.40;99.90;;;;;;5051851;28;20420;-69
2022/04/21 03:09:40;;;;;;;11.50;10.50;;;6.40;99.90;;;;;;5051543;28;20175;-68
2022/04/21 03:12:07;;;;;;;10.03;9.13;;;6.40;99.90;;;;;;5051694;28;20435;-68
2022/04/21 03:14:37;;;;;;;18.47;10.70;;;6.30;99.90;;;;;;5051559;28;20514;-68
2022/04/21 03:17:07;;;;;;;13.30;12.07;;;6.30;99.90;;;;;;5051672;28;20408;-68
2022/04/21 03:19:34;;;;;;;11.87;10.77;;;6.30;99.90;;;;;;5051377;28;20434;-69
2022/04/21 03:24:45;;;;;;;11.00;10.00;;;6.30;99.90;;;;;;5051948;28;20494;-68
2022/04/21 03:27:10;;;;;;;12.00;10.80;;;6.30;99.90;;;;;;5051787;28;20933;-68
2022/04/21 03:29:39;;;;;;;10.97;9.97;;;6.20;99.90;;;;;;5051256;28;20419;-69
2022/04/21 03:32:09;;;;;;;11.27;10.13;;;6.20;99.90;;;;;;5052076;28;20242;-69
2022/04/21 03:34:40;;;;;;;12.17;10.87;;;6.30;99.90;;;;;;5051981;28;20514;-68
2022/04/21 03:37:06;;;;;;;13.00;10.40;;;6.20;99.90;;;;;;5051550;28;20510;-68
2022/04/21 03:39:32;;;;;;;12.63;11.33;;;6.20;99.90;;;;;;5051386;28;20408;-68
2022/04/21 03:41:57;;;;;;;11.70;10.60;;;6.20;99.90;;;;;;5051412;28;20838;-68
2022/04/21 03:44:23;;;;;;;11.40;10.30;;;6.20;99.90;;;;;;5053745;28;20248;-68
2022/04/21 03:46:50;;;;;;;12.00;9.80;;;6.20;99.90;;;;;;5055441;28;20173;-68
2022/04/21 03:49:15;;;;;;;11.40;10.33;;;6.20;99.90;;;;;;5054993;28;20424;-68
2022/04/21 03:51:41;;;;;;;11.30;10.20;;;6.20;99.90;;;;;;5055092;28;20447;-69
2022/04/21 03:54:07;;;;;;;11.90;10.70;;;6.20;99.90;;;;;;5055134;28;20201;-68
2022/04/21 03:56:33;;;;;;;11.50;10.30;;;6.20;99.90;;;;;;5055204;28;20252;-68
2022/04/21 03:58:58;;;;;;;13.83;12.43;;;6.10;99.90;;;;;;5054743;28;20214;-68
2022/04/21 04:01:24;;;;;;;13.37;11.57;;;6.10;99.90;;;;;;5054974;28;20507;-68
2022/04/21 04:03:51;;;;;;;12.43;11.23;;;6.00;99.90;;;;;;5055133;28;20513;-68
2022/04/21 04:11:46;;;;;;;12.93;11.67;;;5.80;99.90;;;;;;5054984;28;20462;-68
2022/04/21 04:14:11;;;;;;;13.00;11.63;;;5.80;99.90;;;;;;5054648;28;20451;-69
2022/04/21 04:16:37;;;;;;;12.27;11.27;;;5.80;99.90;;;;;;5054718;28;20477;-68
2022/04/21 04:19:05;;;;;;;11.93;10.93;;;5.80;99.90;;;;;;5054485;28;20169;-68
2022/04/21 04:21:31;;;;;;;13.53;12.23;;;5.80;99.90;;;;;;5054555;28;20789;-68
2022/04/21 04:23:57;;;;;;;14.93;13.40;;;5.80;99.90;;;;;;5054651;28;20418;-69
2022/04/21 04:26:23;;;;;;;13.17;11.87;;;5.80;99.90;;;;;;5054425;28;20906;-68
2022/04/21 04:28:49;;;;;;;15.00;12.87;;;5.80;99.90;;;;;;5054086;28;20432;-68
2022/04/21 04:31:15;;;;;;;13.80;12.50;;;5.80;99.90;;;;;;5054453;28;20212;-68
2022/04/21 04:33:41;;;;;;;15.83;14.23;;;5.90;99.90;;;;;;5054394;28;20443;-68
2022/04/21 04:36:09;;;;;;;13.97;12.67;;;5.90;99.90;;;;;;5054444;28;20773;-68
2022/04/21 04:38:35;;;;;;;14.73;13.03;;;6.00;99.90;;;;;;5054044;28;20181;-68
2022/04/21 04:42:16;;;;;;;13.23;11.93;;;6.00;99.90;;;;;;5054367;28;20462;-69
2022/04/21 04:43:46;;;;;;;14.60;13.10;;;6.00;99.90;;;;;;5054021;28;20702;-68
2022/04/21 04:48:55;;;;;;;15.43;14.03;;;6.10;99.90;;;;;;5053950;28;20239;-68
2022/04/21 04:51:21;;;;;;;14.77;12.90;;;6.20;99.90;;;;;;5054016;28;20910;-69
2022/04/21 04:53:47;;;;;;;15.73;13.43;;;6.10;99.90;;;;;;5054049;28;20213;-68
2022/04/21 04:56:14;;;;;;;13.87;12.47;;;6.20;99.90;;;;;;5053458;28;20165;-68
2022/04/21 04:58:39;;;;;;;13.90;12.60;;;6.30;99.90;;;;;;5053745;28;20245;-68
2022/04/21 05:01:05;;;;;;;13.60;12.03;;;6.40;99.90;;;;;;5054173;28;21108;-68
2022/04/21 05:03:31;;;;;;;14.67;13.30;;;6.50;99.90;;;;;;5053778;28;20194;-68
2022/04/21 05:05:56;;;;;;;15.30;13.90;;;6.70;99.90;;;;;;5053880;28;20561;-69
2022/04/21 05:08:22;;;;;;;15.10;13.80;;;6.80;99.90;;;;;;5053510;28;20178;-68
2022/04/21 05:10:47;;;;;;;17.47;15.10;;;6.80;99.90;;;;;;5053712;28;20173;-68
2022/04/21 05:13:13;;;;;;;18.23;16.20;;;6.70;99.90;;;;;;5053529;28;20607;-69
2022/04/21 05:15:38;;;;;;;15.00;13.67;;;6.80;99.90;;;;;;5053658;28;20226;-68
2022/04/21 05:18:04;;;;;;;13.93;12.47;;;6.90;99.90;;;;;;5053597;28;20659;-68
2022/04/21 05:20:30;;;;;;;14.10;12.30;;;7.00;99.90;;;;;;5053483;28;20173;-68
2022/04/21 05:23:05;;;;;;;17.27;13.70;;;7.10;99.90;;;;;;5053448;28;20196;-68
2022/04/21 05:25:33;;;;;;;15.60;14.00;;;7.30;99.90;;;;;;5053371;28;20258;-69
2022/04/21 05:27:59;;;;;;;18.17;13.90;;;7.40;99.90;;;;;;5053343;28;20416;-68
2022/04/21 05:33:10;;;;;;;15.13;13.50;;;7.50;99.90;;;;;;5053091;28;20916;-69
2022/04/21 05:35:36;;;;;;;16.27;14.57;;;7.70;99.90;;;;;;5053126;28;20554;-69
2022/04/21 05:38:02;;;;;;;14.90;13.60;;;7.80;99.90;;;;;;5053021;28;20514;-68
2022/04/21 05:40:28;;;;;;;15.67;14.07;;;8.00;99.90;;;;;;5052884;28;20431;-68
2022/04/21 05:42:57;;;;;;;14.67;13.23;;;8.10;99.90;;;;;;5053138;28;20440;-69
2022/04/21 05:45:23;;;;;;;15.53;14.10;;;8.30;99.90;;;;;;5053381;28;20261;-69
2022/04/21 05:47:48;;;;;;;15.80;14.30;;;8.50;99.90;;;;;;5053156;28;20448;-69
2022/04/21 05:50:15;;;;;;;14.20;13.00;;;8.60;99.90;;;;;;5053015;28;20188;-69
2022/04/21 05:52:43;;;;;;;15.00;13.53;;;8.80;99.90;;;;;;5053251;28;20811;-69
2022/04/21 05:55:10;;;;;;;16.10;14.50;;;8.90;99.90;;;;;;5053367;28;20499;-70
2022/04/21 05:57:40;;;;;;;16.53;14.57;;;9.00;99.90;;;;;;5037498;28;20494;-69
2022/04/21 06:00:07;;;;;;;17.13;14.97;;;9.10;99.90;;;;;;5004130;28;20440;-70
2022/04/21 06:02:35;;;;;;;20.10;18.00;;;9.20;99.90;;;;;;5028505;28;20796;-69
2022/04/21 06:05:00;;;;;;;19.23;15.87;;;9.30;99.90;;;;;;5031589;28;20479;-68
2022/04/21 06:07:26;;;;;;;16.43;14.87;;;9.40;99.90;;;;;;5029370;28;20794;-70
2022/04/21 06:09:51;;;;;;;16.93;15.13;;;9.60;99.90;;;;;;5030267;28;20273;-69
2022/04/21 06:12:17;;;;;;;14.93;13.63;;;9.70;99.90;;;;;;5032527;28;20216;-67
2022/04/21 06:14:45;;;;;;;15.83;14.17;;;9.90;99.90;;;;;;5032246;28;20205;-67
2022/04/21 06:17:10;;;;;;;15.43;13.97;;;10.00;99.90;;;;;;5032557;28;20582;-67
2022/04/21 06:19:36;;;;;;;16.83;15.23;;;10.10;99.90;;;;;;5031877;28;20486;-67
2022/04/21 06:22:02;;;;;;;16.90;15.30;;;10.30;99.90;;;;;;5032250;28;20201;-67
2022/04/21 06:24:29;;;;;;;17.50;15.90;;;10.40;99.90;;;;;;5032215;28;20436;-67
2022/04/21 06:26:54;;;;;;;18.00;16.20;;;10.50;99.90;;;;;;5032339;28;20171;-66
2022/04/21 06:29:20;;;;;;;17.30;15.60;;;10.60;99.90;;;;;;5031811;28;20421;-67
2022/04/21 06:31:45;;;;;;;18.03;16.43;;;10.60;99.90;;;;;;5032427;28;20198;-66
2022/04/21 06:34:11;;;;;;;17.50;15.90;;;10.70;99.90;;;;;;5030903;28;20201;-67
2022/04/21 06:36:37;;;;;;;17.70;16.13;;;10.90;99.90;;;;;;5032291;28;20190;-67
2022/04/21 06:39:03;;;;;;;18.47;16.53;;;11.00;99.90;;;;;;5031427;28;20170;-67
2022/04/21 06:41:29;;;;;;;18.20;16.37;;;11.20;99.90;;;;;;5032003;28;20171;-67
2022/04/21 06:49:22;;;;;;;17.17;15.53;;;11.70;99.90;;;;;;5053207;28;20473;-67
2022/04/21 06:51:47;;;;;;;17.43;15.73;;;11.80;99.90;;;;;;5052462;28;20903;-67
2022/04/21 06:54:13;;;;;;;17.53;15.93;;;11.90;99.90;;;;;;5033354;28;20205;-67
2022/04/21 06:56:39;;;;;;;16.73;15.13;;;12.00;99.90;;;;;;5031906;28;20170;-66
2022/04/21 06:59:05;;;;;;;18.90;17.23;;;12.00;99.90;;;;;;5031956;28;20173;-67
2022/04/21 07:01:31;;;;;;;20.47;16.00;;;12.20;99.90;;;;;;5031797;28;20177;-67
2022/04/21 07:03:56;;;;;;;17.53;15.77;;;12.50;99.90;;;;;;5032092;28;20421;-67
2022/04/21 07:06:22;;;;;;;17.67;15.87;;;12.60;99.90;;;;;;5031799;28;20178;-67
2022/04/21 07:08:48;;;;;;;19.20;17.40;;;12.80;99.90;;;;;;5031259;28;20265;-67
2022/04/21 07:11:15;;;;;;;17.53;16.00;;;12.90;99.90;;;;;;5032022;28;20206;-67
2022/04/21 07:13:41;;;;;;;18.23;16.60;;;13.00;99.90;;;;;;5031326;28;20421;-69
2022/04/21 07:16:07;;;;;;;17.60;15.80;;;13.10;99.90;;;;;;5028868;28;20466;-66
2022/04/21 07:18:32;;;;;;;17.93;16.23;;;13.30;99.90;;;;;;5032306;28;20860;-66
2022/04/21 07:21:00;;;;;;;18.67;17.00;;;13.30;99.30;;;;;;5035045;28;20663;-66
2022/04/21 07:23:26;;;;;;;18.37;16.67;;;13.30;99.90;;;;;;5035971;28;20210;-66
2022/04/21 07:25:51;;;;;;;17.43;15.73;;;13.30;99.20;;;;;;5035895;28;20724;-66
2022/04/21 07:28:17;;;;;;;18.13;16.37;;;13.20;99.20;;;;;;5035162;28;20644;-66
2022/04/21 07:30:43;;;;;;;18.00;16.40;;;13.30;98.50;;;;;;5026453;28;20626;-66
2022/04/21 07:33:08;;;;;;;18.33;16.40;;;13.30;98.00;;;;;;5032200;28;20284;-66
2022/04/21 07:35:34;;;;;;;17.43;15.73;;;13.40;98.40;;;;;;5032144;28;20249;-66
2022/04/21 07:38:00;;;;;;;17.87;15.53;;;13.50;97.70;;;;;;5032076;28;20201;-66
2022/04/21 07:40:25;;;;;;;15.63;14.23;;;13.80;97.00;;;;;;5031871;28;20174;-66
2022/04/21 07:42:51;;;;;;;17.60;16.10;;;14.00;97.20;;;;;;5031917;28;20510;-66
2022/04/21 07:45:17;;;;;;;16.60;15.00;;;14.10;97.00;;;;;;5032022;28;20177;-66
2022/04/21 07:47:42;;;;;;;16.67;15.17;;;14.20;97.10;;;;;;5032068;28;20174;-66
2022/04/21 07:50:08;;;;;;;16.90;15.40;;;14.40;96.30;;;;;;5032335;28;20182;-66
2022/04/21 07:55:24;;;;;;;17.47;15.90;;;14.60;95.40;;;;;;5032003;28;20264;-66
2022/04/21 07:57:53;;;;;;;16.50;15.00;;;14.60;95.10;;;;;;5032248;28;20431;-66
2022/04/21 08:00:19;;;;;;;18.90;16.90;;;14.60;94.90;;;;;;5031853;28;20785;-66
2022/04/21 08:02:46;;;;;;;16.87;15.47;;;14.90;95.10;;;;;;5031586;28;20432;-68
2022/04/21 08:05:14;;;;;;;17.93;16.17;;;15.10;93.90;;;;;;5031774;28;20806;-65
2022/04/21 08:07:39;;;;;;;17.00;15.50;;;15.10;94.00;;;;;;5031200;28;20455;-66
2022/04/21 08:10:07;;;;;;;17.83;16.17;;;15.20;93.40;;;;;;5031184;28;20428;-67
2022/04/21 08:12:40;;;;;;;17.33;15.53;;;15.30;93.50;;;;;;5031350;28;20298;-66
2022/04/21 08:15:07;;;;;;;16.70;15.00;;;15.40;93.10;;;;;;5031617;28;20495;-66
2022/04/21 08:17:33;;;;;;;15.93;14.63;;;15.60;92.80;;;;;;5031377;28;20839;-66
2022/04/21 08:19:59;;;;;;;15.50;14.20;;;15.50;92.20;;;;;;5031128;28;21306;-66
2022/04/21 08:22:24;;;;;;;15.07;13.73;;;15.80;92.00;;;;;;5031560;28;20190;-66
2022/04/21 08:33:02;;;;;;;19.60;17.60;;;16.60;88.80;;;;;;5031406;28;20594;-66
2022/04/21 08:35:27;;;;;;;14.47;13.30;;;16.20;87.90;;;;;;5031472;28;20551;-66
2022/04/21 08:37:53;;;;;;;12.97;11.90;;;16.10;87.00;;;;;;5030852;28;20576;-66
2022/04/21 08:40:18;;;;;;;14.17;12.90;;;16.10;86.50;;;;;;5030704;28;20170;-66
2022/04/21 08:42:44;;;;;;;12.97;11.80;;;16.10;84.10;;;;;;5030886;28;20194;-66
2022/04/21 08:45:12;;;;;;;13.50;12.30;;;16.30;83.60;;;;;;5031174;28;20178;-66
2022/04/21 08:47:40;;;;;;;13.23;12.13;;;16.50;83.20;;;;;;5030743;28;20849;-66
2022/04/21 08:50:14;;;;;;;14.13;12.83;;;16.40;84.10;;;;;;5030729;28;20456;-66
2022/04/21 08:52:41;;;;;;;12.80;11.60;;;16.50;83.70;;;;;;5030696;28;21008;-66
2022/04/21 08:55:08;;;;;;;13.40;12.30;;;16.80;81.50;;;;;;5031504;28;20466;-68
2022/04/21 08:57:37;;;;;;;12.50;11.50;;;16.70;80.60;;;;;;5030440;28;20941;-68
2022/04/21 09:00:07;;;;;;;12.13;11.03;;;16.90;81.60;;;;;;5030606;28;20421;-69
2022/04/21 09:02:38;;;;;;;13.70;12.63;;;17.10;82.30;;;;;;5031037;28;20437;-67
2022/04/21 09:05:04;;;;;;;12.50;11.30;;;17.30;80.50;;;;;;5031576;28;20427;-66
2022/04/21 09:07:30;;;;;;;14.20;13.00;;;17.60;79.20;;;;;;5030730;28;20792;-68
2022/04/21 09:10:11;;;;;;;12.87;11.70;;;17.90;78.10;;;;;;5028494;28;20444;-67
2022/04/21 09:13:00;;;;;;;13.30;12.27;;;18.10;76.30;;;;;;5010509;28;20289;-67
2022/04/21 09:15:30;;;;;;;12.53;11.47;;;18.10;76.90;;;;;;5022552;28;20599;-68
2022/04/21 09:18:00;;;;;;;13.53;12.20;;;18.40;75.30;;;;;;5031832;28;20420;-68
2022/04/21 09:20:29;;;;;;;12.40;11.43;;;19.10;73.00;;;;;;5021378;28;20439;-68
2022/04/21 09:22:57;;;;;;;12.57;11.57;;;19.80;71.10;;;;;;5020015;28;20479;-67
2022/04/21 09:25:25;;;;;;;12.67;11.60;;;20.00;69.10;;;;;;5014308;28;20430;-67
2022/04/21 09:27:52;;;;;;;13.27;12.03;;;19.90;66.80;;;;;;5024377;28;20438;-68
2022/04/21 09:30:18;;;;;;;12.40;11.30;;;20.50;66.10;;;;;;5030147;28;20425;-67
2022/04/21 09:32:55;;;;;;;10.90;10.10;;;20.80;62.40;;;;;;5030531;28;20487;-67
2022/04/21 09:35:23;;;;;;;11.80;10.83;;;21.50;59.90;;;;;;5030153;28;20478;-67
2022/04/21 09:37:51;;;;;;;12.40;11.40;;;21.40;58.30;;;;;;5030244;28;20444;-68
2022/04/21 09:40:28;;;;;;;12.57;11.63;;;21.50;57.80;;;;;;5029951;28;20432;-67
2022/04/21 09:43:03;;;;;;;13.00;11.80;;;21.70;57.70;;;;;;5029897;28;20490;-68
2022/04/21 09:48:28;;;;;;;10.97;10.10;;;22.80;55.90;;;;;;5030310;28;20436;-68
2022/04/21 09:51:06;;;;;;;11.40;10.47;;;23.30;54.90;;;;;;5028797;28;20480;-68
2022/04/21 09:53:49;;;;;;;11.23;10.43;;;23.60;53.30;;;;;;5030774;28;20444;-68
2022/04/21 09:56:15;;;;;;;11.23;10.30;;;24.10;52.30;;;;;;5030683;28;20439;-69
2022/04/21 09:58:41;;;;;;;12.07;10.97;;;25.10;50.20;;;;;;5030499;28;20416;-68
2022/04/21 10:01:08;;;;;;;11.77;10.87;;;24.90;49.70;;;;;;5028823;28;20170;-67
2022/04/21 10:03:34;;;;;;;12.40;11.30;;;26.10;48.30;;;;;;5020798;28;20957;-68
2022/04/21 10:06:01;;;;;;;12.90;11.97;;;26.60;46.20;;;;;;5022933;28;20995;-69
2022/04/21 10:08:29;;;;;;;12.53;11.43;;;26.50;46.00;;;;;;5014951;28;20425;-69
2022/04/21 10:10:55;;;;;;;10.07;9.27;;;26.50;44.80;;;;;;5028117;28;20435;-69
2022/04/21 10:13:21;;;;;;;11.90;10.70;;;25.30;45.90;;;;;;5027789;28;20507;-69
2022/04/21 10:15:47;;;;;;;11.13;10.17;;;25.80;45.50;;;;;;5029214;28;20464;-69
2022/04/21 10:18:15;;;;;;;12.00;10.93;;;25.80;45.00;;;;;;5029203;28;20174;-68
2022/04/21 10:20:42;;;;;;;11.50;10.70;;;26.40;44.20;;;;;;5029702;28;20574;-67
2022/04/21 10:23:16;;;;;;;11.37;10.57;;;27.40;43.50;;;;;;5029839;28;20483;-69
2022/04/21 10:25:43;;;;;;;10.77;9.87;;;27.60;42.10;;;;;;5021937;28;20441;-72
2022/04/21 10:28:36;;;;;;;9.83;9.13;;;26.50;42.00;;;;;;5023647;28;20432;-73
2022/04/21 10:31:33;;;;;;;10.90;10.03;;;25.50;42.90;;;;;;5019046;28;20441;-73
2022/04/21 10:34:06;;;;;;;9.80;9.00;;;25.00;43.70;;;;;;5017404;28;20512;-72
2022/04/21 10:36:35;;;;;;;9.33;8.73;;;24.80;44.10;;;;;;5016960;28;20450;-72
2022/04/21 10:39:30;;;;;;;10.30;9.60;;;25.40;43.50;;;;;;5020047;28;20472;-75
2022/04/21 10:42:16;;;;;;;11.77;10.67;;;26.80;41.70;;;;;;5020555;28;20458;-69
2022/04/21 10:44:47;;;;;;;10.90;10.20;;;27.00;41.80;;;;;;5009837;28;20993;-68
2022/04/21 10:47:32;;;;;;;12.50;11.50;;;28.20;40.50;;;;;;5009669;28;20432;-68
2022/04/21 10:50:19;;;;;;;11.87;11.00;;;27.10;40.20;;;;;;5009243;28;20430;-68
2022/04/21 10:58:47;;;;;;;9.10;8.50;;;21.80;46.60;;;;;;5015888;28;20804;-67
2022/04/21 11:01:17;;;;;;;10.57;9.77;;;21.10;48.50;;;;;;5028980;28;20914;-67
2022/04/21 11:03:45;;;;;;;8.97;8.30;;;22.80;47.20;;;;;;5029051;28;20845;-68
2022/04/21 11:06:13;;;;;;;8.53;8.00;;;25.40;44.80;;;;;;5028794;28;20508;-66
2022/04/21 11:08:39;;;;;;;8.70;8.10;;;27.30;42.20;;;;;;5028529;28;20424;-68
2022/04/21 11:11:05;;;;;;;8.63;8.03;;;28.30;40.60;;;;;;5028810;28;20423;-68
2022/04/21 11:13:51;;;;;;;9.67;9.10;;;28.10;40.50;;;;;;5029471;28;20464;-68
2022/04/21 11:16:41;;;;;;;8.23;7.63;;;28.90;38.60;;;;;;5029513;28;20837;-68
2022/04/21 11:19:28;;;;;;;9.20;8.60;;;28.80;39.30;;;;;;5028462;28;20413;-68
2022/04/21 11:21:54;;;;;;;8.90;8.07;;;29.40;38.50;;;;;;5028534;28;21017;-69
2022/04/21 11:24:19;;;;;;;9.00;8.30;;;30.20;37.80;;;;;;5028571;28;20566;-69
2022/04/21 11:26:56;;;;;;;9.37;8.57;;;30.80;37.10;;;;;;5028690;28;20182;-68
2022/04/21 11:29:25;;;;;;;9.90;9.20;;;28.50;37.70;;;;;;5028104;28;20698;-68
2022/04/21 11:31:55;;;;;;;8.97;8.33;;;26.40;39.80;;;;;;5028214;28;20451;-68
2022/04/21 11:34:22;;;;;;;8.83;8.23;;;25.60;41.00;;;;;;5028226;28;20830;-68
2022/04/21 11:36:48;;;;;;;8.60;7.90;;;24.80;41.40;;;;;;5028534;28;20498;-68
2022/04/21 11:39:15;;;;;;;8.30;7.80;;;24.50;42.80;;;;;;5026809;28;20851;-67
2022/04/21 11:41:45;;;;;;;8.50;7.90;;;24.40;43.00;;;;;;5028331;28;20464;-67
2022/04/21 11:44:11;;;;;;;8.00;7.50;;;24.20;43.40;;;;;;5028495;28;20416;-67
2022/04/21 11:46:39;;;;;;;8.40;7.70;;;23.70;43.40;;;;;;5028197;28;20433;-68
2022/04/21 11:49:04;;;;;;;8.57;7.50;;;22.90;44.80;;;;;;5027978;28;20443;-69
2022/04/21 11:51:30;;;;;;;7.13;6.10;;;22.30;45.70;;;;;;5028105;28;20428;-69
2022/04/21 11:54:02;;;;;;;7.00;6.57;;;21.80;47.00;;;;;;5028064;28;20190;-68
2022/04/21 11:56:27;;;;;;;6.37;5.97;;;22.20;46.80;;;;;;5028167;28;20268;-67
2022/04/21 11:58:53;;;;;;;5.97;5.47;;;22.70;45.90;;;;;;5027743;28;20532;-67
2022/04/21 12:06:57;;;;;;;6.47;5.87;;;21.70;47.50;;;;;;5031764;28;20464;-68
2022/04/21 12:09:33;;;;;;;5.60;5.20;;;21.40;48.30;;;;;;5031157;28;20432;-66
2022/04/21 12:12:00;;;;;;;5.83;5.43;;;22.30;47.20;;;;;;5031839;28;20452;-67
2022/04/21 12:14:27;;;;;;;6.13;5.53;;;23.60;45.80;;;;;;5031554;28;20875;-68
2022/04/21 12:17:03;;;;;;;5.90;5.50;;;24.20;44.20;;;;;;5031486;28;20966;-67
2022/04/21 12:19:38;;;;;;;5.70;5.30;;;23.70;44.70;;;;;;5030985;28;20934;-67
2022/04/21 12:22:11;;;;;;;5.70;5.30;;;23.20;45.80;;;;;;5031196;28;20527;-68
2022/04/21 12:24:41;;;;;;;5.60;4.20;;;22.40;46.20;;;;;;5031908;28;20451;-66
2022/04/21 12:27:19;;;;;;;4.03;3.73;;;22.30;47.00;;;;;;5031353;28;20417;-67
2022/04/21 12:29:53;;;;;;;5.63;3.40;;;21.80;46.90;;;;;;5030973;28;20420;-67
2022/04/21 12:32:25;;;;;;;3.93;3.73;;;21.40;47.80;;;;;;5031145;28;20447;-67
2022/04/21 12:34:54;;;;;;;3.30;3.10;;;21.00;48.10;;;;;;5029996;28;20515;-69
2022/04/21 12:37:34;;;;;;;3.60;3.40;;;21.00;48.60;;;;;;5031054;28;20472;-69
2022/04/21 12:40:01;;;;;;;3.93;2.87;;;20.90;48.00;;;;;;5030752;28;20456;-68
2022/04/21 12:42:28;;;;;;;3.20;2.70;;;20.80;48.20;;;;;;5030948;28;20950;-69
2022/04/21 12:44:54;;;;;;;2.60;2.40;;;22.10;46.70;;;;;;5031420;28;20746;-67
2022/04/21 12:47:21;;;;;;;2.40;2.30;;;24.80;43.50;;;;;;5030844;28;20798;-65
2022/04/21 12:50:07;;;;;;;2.53;2.33;;;24.70;42.70;;;;;;5030567;28;20431;-67
2022/04/21 12:53:00;;;;;;;2.57;2.37;;;24.70;42.10;;;;;;5029458;28;20449;-69
2022/04/21 12:55:28;;;;;;;2.03;1.83;;;24.60;42.50;;;;;;5029613;28;20492;-67
2022/04/21 12:58:11;;;;;;;2.33;1.90;;;23.70;42.70;;;;;;5030699;28;20860;-67
2022/04/21 13:00:40;;;;;;;1.90;1.80;;;23.50;43.30;;;;;;5031158;28;20455;-66
2022/04/21 13:03:06;;;;;;;2.40;2.00;;;22.70;44.30;;;;;;5030728;28;20491;-66
2022/04/21 13:05:32;;;;;;;2.17;2.07;;;22.10;44.70;;;;;;5030758;28;20429;-66
2022/04/21 13:07:58;;;;;;;2.57;2.30;;;22.90;44.00;;;;;;5030650;28;20508;-66
2022/04/21 13:10:24;;;;;;;2.93;2.73;;;22.50;43.50;;;;;;5030211;28;20269;-67
2022/04/21 13:12:50;;;;;;;2.70;2.50;;;22.40;44.50;;;;;;5030706;28;20528;-67
2022/04/21 13:15:16;;;;;;;3.03;2.83;;;25.00;42.60;;;;;;5030328;28;20545;-67
2022/04/21 13:17:42;;;;;;;9.77;2.77;;;28.10;39.10;;;;;;5029932;28;20178;-67
2022/04/21 13:20:09;;;;;;;3.30;3.10;;;27.10;38.20;;;;;;5030571;28;20843;-67
2022/04/21 13:22:34;;;;;;;2.70;2.50;;;25.60;39.90;;;;;;5030280;28;20196;-66
2022/04/21 13:25:00;;;;;;;2.70;2.50;;;24.60;40.90;;;;;;5030088;28;20515;-66
2022/04/21 13:27:29;;;;;;;3.10;2.90;;;25.00;40.90;;;;;;5030317;28;20643;-64
2022/04/21 13:29:55;;;;;;;2.90;2.70;;;25.20;40.50;;;;;;5030366;28;20575;-67
2022/04/21 13:35:06;;;;;;;3.10;2.30;;;25.50;40.70;;;;;;5029981;28;20620;-68
2022/04/21 13:37:31;;;;;;;2.37;2.27;;;26.20;40.50;;;;;;5030175;28;20499;-68
2022/04/21 13:39:57;;;;;;;5.40;3.00;;;25.00;39.80;;;;;;5029823;28;21063;-67